Time;durP1;ratioP1;P1;durP2;ratioP2;P2;SDS_P1;SDS_P2;PMS_P1;PMS_P2;Temp;Humidity;BMP_temperature;BMP_pressure;BME280_temperature;BME280_humidity;BME280_pressure;Samples;Min_cycle;Max_cycle;Signal;HPM_P1;HPM_P2
2022/09/12 00:00:48;;;;;;;14.03;9.57;;;;;;;17.40;100.00;98669.66;5074252;28;20192;-87
2022/09/12 00:03:14;;;;;;;12.47;10.17;;;;;;;18.45;100.00;98801.56;5074413;28;20640;-87
2022/09/12 00:05:44;;;;;;;12.80;9.90;;;;;;;17.28;100.00;98631.25;5073345;28;20248;-87
2022/09/12 00:08:10;;;;;;;11.57;9.60;;;;;;;18.49;100.00;98836.63;5073753;28;20192;-87
2022/09/12 00:10:38;;;;;;;14.40;10.50;;;;;;;18.40;100.00;98828.91;5074554;28;20157;-88
2022/09/12 00:13:04;;;;;;;13.10;10.37;;;;;;;17.14;100.00;98613.25;5072738;28;20256;-88
2022/09/12 00:15:29;;;;;;;13.47;10.07;;;;;;;17.75;100.00;98710.81;5074147;28;20616;-87
2022/09/12 00:17:55;;;;;;;12.37;9.80;;;;;;;16.47;100.00;98522.53;5074060;28;20188;-87
2022/09/12 00:20:20;;;;;;;13.67;10.53;;;;;;;15.33;100.00;98373.63;5074215;28;20283;-88
2022/09/12 00:22:46;;;;;;;12.30;9.70;;;;;;;17.34;100.00;98719.09;5072492;28;20237;-88
2022/09/12 00:25:11;;;;;;;12.07;10.03;;;;;;;15.74;100.00;98490.50;5073841;28;20161;-87
2022/09/12 00:27:36;;;;;;;13.73;11.10;;;;;;;14.95;100.00;98363.91;5073923;28;20165;-87
2022/09/12 00:30:03;;;;;;;16.63;11.40;;;;;;;17.66;100.00;98848.16;5073437;28;20294;-87
2022/09/12 00:32:29;;;;;;;16.33;11.97;;;;;;;15.47;100.00;98488.53;5072410;28;20165;-87
2022/09/12 00:34:55;;;;;;;15.70;11.63;;;;;;;15.55;100.00;98531.97;5077925;28;20220;-87
2022/09/12 00:37:20;;;;;;;16.53;11.93;;;;;;;17.13;100.00;98820.44;5078184;28;20177;-87
2022/09/12 00:39:46;;;;;;;16.97;12.00;;;;;;;17.05;100.00;98808.44;5076103;28;20201;-87
2022/09/12 00:42:11;;;;;;;15.90;12.20;;;;;;;15.18;100.00;98474.63;5074134;28;20157;-87
2022/09/12 00:44:37;;;;;;;14.50;11.73;;;;;;;17.36;100.00;98839.41;5072797;28;20169;-88
2022/09/12 00:47:15;;;;;;;16.47;11.93;;;;;;;17.39;100.00;98839.38;5073472;28;20160;-88
2022/09/12 00:49:47;;;;;;;16.23;12.20;;;;;;;17.40;100.00;98834.28;5073616;28;20152;-88
2022/09/12 00:52:36;;;;;;;13.20;11.00;;;;;;;16.71;100.00;98714.41;5088739;28;20251;-86
2022/09/12 00:55:15;;;;;;;13.70;10.47;;;;;;;17.29;100.00;98833.34;5073287;28;20196;-88
2022/09/12 00:58:11;;;;;;;13.40;10.77;;;;;;;16.61;100.00;98704.94;5074048;28;20167;-88
2022/09/12 01:00:36;;;;;;;14.37;10.90;;;;;;;17.18;100.00;98809.38;5073057;28;20217;-88
2022/09/12 01:03:13;;;;;;;13.77;11.03;;;;;;;16.53;100.00;98691.25;5053213;28;20222;-88
2022/09/12 01:05:45;;;;;;;14.37;11.00;;;;;;;17.33;100.00;98835.06;5068578;28;20193;-88
2022/09/12 01:08:11;;;;;;;15.13;11.47;;;;;;;16.39;100.00;98680.03;5051651;28;20195;-88
2022/09/12 01:10:39;;;;;;;14.47;11.20;;;;;;;16.08;100.00;98639.69;5052964;28;20158;-88
2022/09/12 01:13:06;;;;;;;15.07;11.23;;;;;;;15.99;100.00;98601.34;5051033;28;20650;-88
2022/09/12 01:15:32;;;;;;;13.27;11.03;;;;;;;14.39;100.00;98359.09;5053054;28;20169;-89
2022/09/12 01:18:31;;;;;;;13.57;10.40;;;;;;;14.44;100.00;98371.88;5053163;28;20161;-89
2022/09/12 01:21:15;;;;;;;15.53;11.23;;;;;;;17.20;100.00;98828.16;5053914;28;20717;-89
2022/09/12 01:24:32;;;;;;;15.93;11.13;;;;;;;17.32;100.00;98830.81;5052602;28;20165;-89
2022/09/12 01:27:16;;;;;;;13.30;10.47;;;;;;;17.35;100.00;98833.41;4976198;28;20183;-89
2022/09/12 01:30:03;;;;;;;14.43;10.63;;;;;;;17.46;100.00;98826.66;4992271;28;20182;-89
2022/09/12 01:33:01;;;;;;;13.57;10.57;;;;;;;17.47;100.00;98819.84;4975760;28;20171;-89
2022/09/12 01:35:34;;;;;;;13.93;10.70;;;;;;;17.53;100.00;98835.22;4899583;29;20584;-89
2022/09/12 01:38:14;;;;;;;13.33;11.00;;;;;;;17.58;100.00;98823.34;4914233;29;20196;-89
2022/09/12 01:41:02;;;;;;;13.40;10.33;;;;;;;17.48;100.00;98821.56;4914330;29;20296;-89
2022/09/12 01:43:37;;;;;;;14.70;10.57;;;;;;;17.13;100.00;98784.63;4858338;29;20199;-89
2022/09/12 01:46:19;;;;;;;13.97;10.43;;;;;;;16.42;100.00;98665.59;4842879;29;20297;-89
2022/09/12 01:49:05;;;;;;;17.30;10.27;;;;;;;15.90;100.00;98579.97;4858561;29;20298;-89
2022/09/12 01:51:37;;;;;;;14.57;10.93;;;;;;;16.39;100.00;98657.03;4859009;29;20207;-89
2022/09/12 01:54:09;;;;;;;13.33;9.80;;;;;;;16.00;100.00;98573.25;4858002;29;20184;-89
2022/09/12 01:56:37;;;;;;;12.77;9.70;;;;;;;17.13;100.00;98757.34;4867791;29;20259;-89
2022/09/12 01:59:29;;;;;;;11.87;9.03;;;;;;;17.47;100.00;98804.50;4876835;29;20275;-90
2022/09/12 02:02:01;;;;;;;12.50;8.73;;;;;;;16.37;100.00;98628.06;4860236;29;20201;-89
2022/09/12 02:04:39;;;;;;;13.00;10.07;;;;;;;16.22;100.00;98595.59;4880081;29;20598;-89
2022/09/12 02:07:15;;;;;;;11.97;9.70;;;;;;;16.63;100.00;98662.38;4896538;29;20194;-89
2022/09/12 02:09:49;;;;;;;12.73;9.70;;;;;;;17.53;100.00;98812.19;4895382;29;20177;-90
2022/09/12 02:12:20;;;;;;;14.47;9.80;;;;;;;16.55;100.00;98656.34;4933802;28;20271;-88
2022/09/12 02:14:56;;;;;;;11.03;8.90;;;;;;;15.94;100.00;98591.06;4955861;28;20547;-88
2022/09/12 02:17:25;;;;;;;12.57;9.80;;;;;;;16.24;100.00;98613.47;4971994;28;20194;-88
2022/09/12 02:20:11;;;;;;;11.07;8.80;;;;;;;17.31;100.00;98815.44;4977796;28;20255;-88
2022/09/12 02:22:38;;;;;;;10.97;8.53;;;;;;;15.68;100.00;98542.34;5056613;28;20207;-88
2022/09/12 02:25:06;;;;;;;12.87;9.60;;;;;;;15.83;100.00;98575.66;5071280;28;20601;-87
2022/09/12 02:27:48;;;;;;;12.80;9.70;;;;;;;16.37;100.00;98661.28;5074367;28;20177;-87
2022/09/12 02:30:15;;;;;;;11.77;9.00;;;;;;;16.17;100.00;98614.25;5066321;28;20185;-88
2022/09/12 02:33:19;;;;;;;13.57;9.77;;;;;;;17.34;100.00;98810.34;5055522;28;20638;-88
2022/09/12 02:36:00;;;;;;;12.10;9.20;;;;;;;17.33;100.00;98826.56;5055455;28;20671;-88
2022/09/12 02:38:45;;;;;;;10.73;8.80;;;;;;;17.20;100.00;98801.72;5056781;28;20169;-88
2022/09/12 02:41:13;;;;;;;10.90;8.60;;;;;;;16.18;100.00;98624.47;5054668;28;20201;-88
2022/09/12 02:43:39;;;;;;;10.97;8.63;;;;;;;17.07;100.00;98770.94;5054619;28;20169;-88
2022/09/12 02:46:09;;;;;;;11.87;8.73;;;;;;;17.05;100.00;98767.53;5054110;28;20638;-88
2022/09/12 02:48:38;;;;;;;11.33;9.40;;;;;;;17.35;100.00;98832.53;5063941;28;20556;-88
2022/09/12 02:51:04;;;;;;;12.37;8.37;;;;;;;17.38;100.00;98830.88;5075308;28;20156;-87
2022/09/12 02:53:30;;;;;;;11.57;9.30;;;;;;;17.35;100.00;98828.28;5075824;28;20244;-87
2022/09/12 02:55:56;;;;;;;11.57;9.00;;;;;;;16.63;100.00;98697.28;5075785;28;20163;-88
2022/09/12 02:58:26;;;;;;;9.23;7.80;;;;;;;16.62;100.00;98701.53;5090828;28;20176;-87
2022/09/12 03:01:08;;;;;;;12.63;8.67;;;;;;;15.29;100.00;98468.81;5075318;28;20188;-87
2022/09/12 03:03:55;;;;;;;10.23;8.00;;;;;;;17.40;100.00;98815.53;5075000;28;20167;-87
2022/09/12 03:06:34;;;;;;;10.60;8.23;;;;;;;17.27;100.00;98777.91;5079562;28;20160;-88
2022/09/12 03:09:18;;;;;;;9.90;7.87;;;;;;;17.37;100.00;98811.25;5075113;28;20160;-88
2022/09/12 03:11:55;;;;;;;8.80;7.10;;;;;;;17.36;100.00;98819.75;5076292;28;20722;-89
2022/09/12 03:15:00;;;;;;;9.30;7.53;;;;;;;17.42;100.00;98819.81;5075533;28;20347;-88
2022/09/12 03:17:47;;;;;;;9.00;7.37;;;;;;;17.44;100.00;98818.09;5073985;28;20176;-88
2022/09/12 03:20:23;;;;;;;9.00;7.10;;;;;;;16.52;100.00;98671.59;5074836;28;20646;-88
2022/09/12 03:22:57;;;;;;;8.73;7.30;;;;;;;15.96;100.00;98583.44;5075249;28;20588;-88
2022/09/12 03:25:33;;;;;;;9.07;7.83;;;;;;;17.37;100.00;98835.97;5075710;28;20263;-88
2022/09/12 03:28:06;;;;;;;9.93;7.67;;;;;;;17.43;100.00;98838.56;5073771;28;20164;-89
2022/09/12 03:30:53;;;;;;;10.60;7.13;;;;;;;16.72;100.00;98736.56;5073542;28;20183;-87
2022/09/12 03:33:24;;;;;;;9.83;8.03;;;;;;;17.44;100.00;98835.19;5073739;28;20251;-87
2022/09/12 03:35:51;;;;;;;9.67;7.97;;;;;;;16.86;100.00;98758.00;5074224;28;20255;-88
2022/09/12 03:38:17;;;;;;;9.23;7.23;;;;;;;16.63;100.00;98748.41;5079808;28;20223;-87
2022/09/12 03:40:42;;;;;;;10.93;8.40;;;;;;;15.96;100.00;98632.78;5085999;28;20675;-87
2022/09/12 03:43:08;;;;;;;9.67;7.87;;;;;;;14.47;100.00;98387.19;5074939;28;20172;-87
2022/09/12 03:45:35;;;;;;;10.03;7.87;;;;;;;15.20;100.00;98514.59;5074574;28;20175;-87
2022/09/12 03:48:01;;;;;;;8.60;7.03;;;;;;;17.04;100.00;98836.56;5074430;28;20196;-88
2022/09/12 03:50:26;;;;;;;8.93;7.60;;;;;;;13.52;100.00;98275.66;5074671;28;20189;-88
2022/09/12 03:52:52;;;;;;;9.67;7.87;;;;;;;16.34;100.00;98722.56;5074007;28;20243;-86
2022/09/12 03:55:18;;;;;;;8.93;7.40;;;;;;;16.99;100.00;98836.53;5074431;28;20179;-88
2022/09/12 03:57:44;;;;;;;9.40;7.30;;;;;;;16.76;100.00;98801.34;5074653;28;20196;-87
2022/09/12 04:00:10;;;;;;;9.33;7.57;;;;;;;14.89;100.00;98519.34;5073506;28;20684;-87
2022/09/12 04:02:35;;;;;;;9.87;7.03;;;;;;;16.92;100.00;98841.56;5074851;28;20184;-87
2022/09/12 04:05:01;;;;;;;10.87;7.83;;;;;;;16.93;100.00;98839.00;5092155;28;20176;-87
2022/09/12 04:07:27;;;;;;;10.00;6.77;;;;;;;15.50;100.00;98640.78;5082023;28;20639;-88
2022/09/12 04:09:53;;;;;;;9.33;6.90;;;;;;;16.39;100.00;98784.75;5098332;28;20172;-87
2022/09/12 04:12:19;;;;;;;8.83;7.20;;;;;;;16.77;100.00;98857.59;5074226;28;20177;-89
2022/09/12 04:14:45;;;;;;;9.57;7.57;;;;;;;15.01;100.00;98573.84;5078942;28;20173;-88
2022/09/12 04:17:11;;;;;;;12.03;7.43;;;;;;;16.43;100.00;98817.16;5115004;28;20161;-89
2022/09/12 04:19:37;;;;;;;9.23;7.20;;;;;;;13.59;100.00;98348.66;5098504;28;20192;-88
2022/09/12 04:22:04;;;;;;;8.30;6.90;;;;;;;16.25;100.00;98817.81;5076947;28;20234;-88
2022/09/12 04:24:29;;;;;;;10.77;7.30;;;;;;;13.21;100.00;98319.22;5074156;28;20169;-89
2022/09/12 04:26:54;;;;;;;9.27;7.60;;;;;;;15.08;100.00;98641.91;5072506;28;20173;-88
2022/09/12 04:29:20;;;;;;;10.33;6.63;;;;;;;13.88;100.00;98462.69;5089379;28;20759;-89
2022/09/12 04:31:46;;;;;;;9.50;7.07;;;;;;;11.90;100.00;98096.16;5072956;28;20168;-88
2022/09/12 04:34:12;;;;;;;9.83;6.73;;;;;;;13.27;100.00;98311.72;5090275;28;20322;-89
2022/09/12 04:36:37;;;;;;;9.83;6.13;;;;;;;16.59;100.00;98867.63;5072346;28;20268;-89
2022/09/12 04:39:06;;;;;;;7.17;6.07;;;;;;;14.18;100.00;98465.69;5089895;28;20177;-89
2022/09/12 04:41:35;;;;;;;7.97;6.57;;;;;;;16.63;100.00;98879.59;5073354;28;20580;-89
2022/09/12 04:44:06;;;;;;;7.90;6.30;;;;;;;14.74;100.00;98578.56;5073290;28;20204;-89
2022/09/12 04:46:35;;;;;;;8.77;6.20;;;;;;;15.23;100.00;98636.16;5072019;28;20207;-88
2022/09/12 04:49:01;;;;;;;7.87;6.50;;;;;;;14.25;100.00;98462.41;5074021;28;20228;-88
2022/09/12 04:51:30;;;;;;;7.93;5.93;;;;;;;14.73;100.00;98552.25;5074418;28;20183;-89
2022/09/12 04:54:07;;;;;;;7.90;6.10;;;;;;;14.95;100.00;98606.91;5073536;28;20173;-89
2022/09/12 04:56:38;;;;;;;7.13;5.73;;;;;;;16.47;100.00;98826.56;5074675;28;20243;-89
2022/09/12 04:59:03;;;;;;;6.60;5.53;;;;;;;16.87;100.00;98905.44;5073760;28;20173;-89
2022/09/12 05:01:36;;;;;;;8.20;6.07;;;;;;;16.86;100.00;98896.06;5080066;28;20184;-89
2022/09/12 05:04:03;;;;;;;7.93;5.80;;;;;;;16.11;100.00;98754.66;5081757;28;20181;-86
2022/09/12 05:06:31;;;;;;;7.97;6.00;;;;;;;17.05;100.00;98889.41;5075179;28;20172;-87
2022/09/12 05:08:57;;;;;;;7.87;5.50;;;;;;;15.59;100.00;98658.75;5073736;28;20168;-87
2022/09/12 05:11:25;;;;;;;5.90;5.23;;;;;;;17.05;100.00;98899.66;5072075;28;20168;-87
2022/09/12 05:13:51;;;;;;;6.73;5.37;;;;;;;16.27;100.00;98769.28;5073336;28;20533;-88
2022/09/12 05:16:18;;;;;;;11.63;6.50;;;;;;;16.05;100.00;98716.25;5047997;28;20243;-88
2022/09/12 05:18:45;;;;;;;9.77;6.40;;;;;;;17.15;100.00;98909.13;5074033;28;20263;-91
2022/09/12 05:21:13;;;;;;;6.37;5.07;;;;;;;17.11;100.00;98915.06;5076535;28;20211;-86
2022/09/12 05:23:38;;;;;;;6.73;4.33;;;;;;;16.09;100.00;98721.44;5074134;28;20188;-87
2022/09/12 05:26:05;;;;;;;6.50;5.07;;;;;;;15.76;100.00;98659.81;5087850;28;20272;-86
2022/09/12 05:28:36;;;;;;;6.53;5.10;;;;;;;17.41;100.00;98917.03;5087117;28;20193;-87
2022/09/12 05:31:04;;;;;;;5.80;4.93;;;;;;;17.45;100.00;98923.88;5071817;28;20219;-88
2022/09/12 05:33:30;;;;;;;7.27;4.70;;;;;;;17.49;100.00;98912.84;5087076;28;20184;-88
2022/09/12 05:35:55;;;;;;;7.17;4.50;;;;;;;16.22;100.00;98702.00;5072702;28;20192;-87
2022/09/12 05:38:23;;;;;;;5.47;4.53;;;;;;;16.01;100.00;98643.06;5070014;28;20215;-88
2022/09/12 05:40:49;;;;;;;6.93;5.30;;;;;;;17.09;100.00;98810.16;5086683;28;20216;-89
2022/09/12 05:43:14;;;;;;;7.33;4.97;;;;;;;17.03;100.00;98804.16;5086762;28;20200;-87
2022/09/12 05:45:40;;;;;;;8.90;4.57;;;;;;;16.79;100.00;98761.31;5071090;28;20248;-87
2022/09/12 05:48:06;;;;;;;6.90;5.00;;;;;;;17.04;100.00;98787.97;5071132;28;20179;-88
2022/09/12 05:50:31;;;;;;;6.17;4.60;;;;;;;17.77;100.00;98896.91;5086591;28;20990;-87
2022/09/12 05:52:57;;;;;;;6.57;4.70;;;;;;;16.47;100.00;98632.41;5071209;28;20181;-87
2022/09/12 05:55:23;;;;;;;7.27;4.47;;;;;;;17.15;100.00;98765.03;5070263;28;20173;-87
2022/09/12 05:57:49;;;;;;;5.13;3.90;;;;;;;18.05;100.00;98893.63;5070173;28;20277;-88
2022/09/12 06:00:15;;;;;;;5.43;4.33;;;;;;;15.64;100.00;98492.13;5073745;28;20252;-87
2022/09/12 06:02:40;;;;;;;5.07;3.97;;;;;;;17.09;100.00;98733.44;5074026;28;20906;-87
2022/09/12 06:05:06;;;;;;;4.53;3.90;;;;;;;17.07;100.00;98706.16;5078112;28;20185;-88
2022/09/12 06:07:31;;;;;;;4.97;3.47;;;;;;;18.41;100.00;98935.69;5072422;28;20204;-86
2022/09/12 06:09:58;;;;;;;4.27;3.57;;;;;;;17.73;100.00;98800.41;5073751;28;20568;-86
2022/09/12 06:12:25;;;;;;;5.60;4.00;;;;;;;17.32;100.00;98684.13;5074204;28;20653;-87
2022/09/12 06:14:51;;;;;;;4.23;3.70;;;;;;;17.97;100.00;98786.88;5061406;28;20238;-87
2022/09/12 06:17:17;;;;;;;5.33;3.50;;;;;;;17.77;100.00;98732.16;5074697;28;20263;-88
2022/09/12 06:19:45;;;;;;;3.67;3.30;;;;;;;18.21;100.00;98820.28;5074922;28;20684;-87
2022/09/12 06:22:12;;;;;;;5.10;3.40;;;;;;;17.43;100.00;98655.19;5075248;28;20188;-87
2022/09/12 06:24:38;;;;;;;3.60;3.30;;;;;;;17.69;100.00;98679.22;5091715;28;20184;-85
2022/09/12 06:27:04;;;;;;;5.33;3.33;;;;;;;17.81;100.00;98675.84;5090147;28;20230;-87
2022/09/12 06:29:31;;;;;;;4.53;3.20;;;;;;;19.01;100.00;98925.69;5074469;28;20195;-88
2022/09/12 06:31:57;;;;;;;8.93;3.70;;;;;;;18.04;100.00;98751.06;5074407;28;20272;-88
2022/09/12 06:34:22;;;;;;;4.53;3.07;;;;;;;17.87;100.00;98695.50;5089479;28;21001;-90
2022/09/12 06:36:49;;;;;;;5.67;3.50;;;;;;;19.33;100.00;98916.34;5100441;28;20164;-91
2022/09/12 06:39:21;;;;;;;5.10;3.47;;;;;;;18.76;100.00;98816.22;5098609;28;20189;-90
2022/09/12 06:41:48;;;;;;;5.23;3.40;;;;;;;19.11;100.00;98855.59;5109786;28;20204;-88
2022/09/12 06:44:16;;;;;;;3.83;2.80;;;;;;;19.48;100.00;98878.72;5075542;28;20188;-88
2022/09/12 06:46:43;;;;;;;4.10;3.40;;;;;;;18.18;100.00;98692.19;5088368;28;20683;-87
2022/09/12 06:49:08;;;;;;;3.80;3.00;;;;;;;19.01;100.00;98810.22;5073787;28;20222;-87
2022/09/12 06:51:36;;;;;;;4.83;3.60;;;;;;;18.89;100.00;98794.84;5090385;28;20181;-88
2022/09/12 06:54:04;;;;;;;4.73;3.17;;;;;;;19.94;100.00;98926.66;5073872;28;20653;-86
2022/09/12 06:56:30;;;;;;;3.80;2.80;;;;;;;18.51;100.00;98650.38;5091214;28;20191;-88
2022/09/12 06:58:59;;;;;;;3.07;2.77;;;;;;;19.48;100.00;98828.22;5092225;28;20180;-85
2022/09/12 07:01:27;;;;;;;5.73;3.20;;;;;;;18.74;100.00;98654.63;5076002;28;20199;-87
2022/09/12 07:03:55;;;;;;;3.77;2.43;;;;;;;18.09;100.00;98525.66;5074797;28;20214;-86
2022/09/12 07:06:23;;;;;;;3.30;3.00;;;;;;;19.05;100.00;98670.84;5073282;28;20181;-88
2022/09/12 07:08:49;;;;;;;3.00;2.70;;;;;;;18.37;100.00;98545.28;5073576;28;20181;-87
2022/09/12 07:11:22;;;;;;;3.53;3.10;;;;;;;20.86;100.00;98920.38;5074076;28;20257;-88
2022/09/12 07:13:50;;;;;;;5.37;2.93;;;;;;;20.84;100.00;98916.94;5074286;28;20690;-89
2022/09/12 07:16:16;;;;;;;4.80;3.00;;;;;;;20.88;100.00;98923.78;5066072;28;20738;-86
2022/09/12 07:18:42;;;;;;;3.93;2.70;;;;;;;19.56;100.00;98741.75;5072875;28;20191;-85
2022/09/12 07:21:13;;;;;;;3.03;2.73;;;;;;;19.65;100.00;98717.78;5071862;28;20200;-86
2022/09/12 07:23:39;;;;;;;3.77;3.00;;;;;;;20.04;100.00;98776.72;5072242;28;20173;-86
2022/09/12 07:26:05;;;;;;;2.90;2.63;;;;;;;21.02;100.00;98894.53;5072672;28;20180;-84
2022/09/12 07:28:33;;;;;;;4.37;3.20;;;;;;;21.32;100.00;98936.41;5072306;28;20188;-86
2022/09/12 07:31:06;;;;;;;5.47;2.70;;;;;;;21.46;100.00;98930.31;5072711;28;20660;-90
2022/09/12 07:33:31;;;;;;;3.50;2.80;;;;;;;20.93;100.00;98813.97;5070643;28;20679;-88
2022/09/12 07:36:05;;;;;;;3.80;2.80;;;;;;;21.27;100.00;98884.09;5072488;28;20256;-85
2022/09/12 07:38:31;;;;;;;2.83;2.47;;;;;;;21.88;100.00;98939.44;5073044;28;20181;-87
2022/09/12 07:40:57;;;;;;;2.80;2.40;;;;;;;21.77;100.00;98931.78;5072269;28;20212;-86
2022/09/12 07:43:23;;;;;;;2.63;2.23;;;;;;;20.72;100.00;98778.94;5072568;28;20181;-87
2022/09/12 07:45:57;;;;;;;3.00;2.10;;;;;;;21.94;72.04;98941.13;5072464;28;20216;-86
2022/09/12 07:48:22;;;;;;;3.00;2.40;;;;;;;22.14;70.90;98931.47;5071941;28;20268;-87
2022/09/12 07:50:57;;;;;;;2.50;1.90;;;;;;;20.93;70.39;98721.34;5072344;28;20672;-88
2022/09/12 07:53:23;;;;;;;2.50;2.00;;;;;;;20.41;70.78;98682.28;5071250;28;20203;-85
2022/09/12 07:55:53;;;;;;;3.20;2.47;;;;;;;21.36;69.19;98690.91;5072075;28;20653;-85
2022/09/12 07:58:19;;;;;;;3.60;2.13;;;;;;;22.62;68.52;98923.19;5070644;28;20568;-86
2022/09/12 08:00:44;;;;;;;3.93;2.20;;;;;;;22.36;68.16;98840.06;5072009;28;20204;-87
2022/09/12 08:03:10;;;;;;;3.30;2.00;;;;;;;21.99;67.68;98746.00;5070706;28;20177;-87
2022/09/12 08:05:36;;;;;;;2.50;2.20;;;;;;;21.59;67.37;98740.47;5072304;28;20899;-87
2022/09/12 08:08:01;;;;;;;2.57;1.80;;;;;;;21.72;66.65;98732.56;5071526;28;20234;-87
2022/09/12 08:10:27;;;;;;;2.63;1.90;;;;;;;21.62;66.89;98730.94;5070109;28;20228;-87
2022/09/12 08:12:52;;;;;;;2.53;2.00;;;;;;;22.12;66.41;98793.97;5071769;28;20180;-88
2022/09/12 08:15:19;;;;;;;3.47;1.80;;;;;;;20.57;65.97;98584.41;5061725;28;20629;-84
2022/09/12 08:17:44;;;;;;;2.10;1.90;;;;;;;22.03;66.84;98876.59;5072292;28;20181;-88
2022/09/12 08:20:11;;;;;;;2.20;1.93;;;;;;;22.01;66.05;98775.19;5071177;28;20222;-87
2022/09/12 08:22:36;;;;;;;2.60;1.97;;;;;;;21.34;66.08;98631.72;5066371;28;20193;-87
2022/09/12 08:25:02;;;;;;;4.10;2.30;;;;;;;21.73;64.07;98620.88;5086415;28;20176;-86
2022/09/12 08:27:27;;;;;;;2.17;1.97;;;;;;;22.96;64.93;98912.47;5071210;28;20267;-88
2022/09/12 08:29:54;;;;;;;2.73;2.20;;;;;;;21.81;65.26;98751.38;5054252;28;20177;-87
2022/09/12 08:32:19;;;;;;;4.63;2.20;;;;;;;22.44;65.04;98732.53;5052287;28;20197;-87
2022/09/12 08:34:45;;;;;;;4.03;2.10;;;;;;;21.82;62.56;98593.28;5062110;28;20221;-86
2022/09/12 08:37:10;;;;;;;2.33;2.13;;;;;;;23.14;63.01;98847.63;5070555;28;20207;-88
2022/09/12 08:39:36;;;;;;;2.90;2.07;;;;;;;22.34;62.93;98726.63;5070686;28;20223;-88
2022/09/12 08:42:04;;;;;;;3.20;2.07;;;;;;;23.56;62.36;98897.78;5070794;28;20267;-87
2022/09/12 08:44:49;;;;;;;2.93;2.10;;;;;;;23.87;61.82;98904.16;5070200;28;20219;-88
2022/09/12 08:47:24;;;;;;;4.27;2.30;;;;;;;24.22;61.96;98906.13;5054649;28;20188;-87
2022/09/12 08:49:59;;;;;;;5.00;2.40;;;;;;;23.95;61.29;98882.44;5071886;28;20199;-85
2022/09/12 08:52:28;;;;;;;2.40;2.20;;;;;;;23.35;60.24;98731.03;5071375;28;20184;-85
2022/09/12 08:54:55;;;;;;;3.00;2.20;;;;;;;23.95;59.83;98825.53;5087973;28;20207;-86
2022/09/12 08:57:21;;;;;;;3.13;1.87;;;;;;;22.96;59.29;98709.34;5073495;28;20199;-87
2022/09/12 08:59:47;;;;;;;2.50;2.20;;;;;;;22.66;59.68;98666.81;5077995;28;20219;-86
2022/09/12 09:02:27;;;;;;;1.90;1.80;;;;;;;22.53;59.60;98683.34;5076464;28;20279;-85
2022/09/12 09:05:06;;;;;;;2.77;2.00;;;;;;;23.18;59.23;98665.94;5077630;28;20184;-86
2022/09/12 09:07:50;;;;;;;3.43;2.60;;;;;;;24.49;59.54;98895.22;5076389;28;20670;-90
2022/09/12 09:10:45;;;;;;;5.13;2.60;;;;;;;24.62;59.13;98897.53;5069949;28;20662;-86
2022/09/12 09:14:46;;;;;;;2.70;2.40;;;;;;;22.52;59.10;98653.28;5071048;28;20258;-87
2022/09/12 09:16:26;;;;;;;3.30;2.40;;;;;;;23.75;60.24;98881.97;5059932;28;20599;-87
2022/09/12 09:18:56;;;;;;;2.27;2.07;;;;;;;21.00;59.72;98416.72;5067777;28;20734;-87
2022/09/12 09:21:28;;;;;;;3.07;2.27;;;;;;;23.93;60.23;98871.28;5070448;28;20215;-87
2022/09/12 09:24:02;;;;;;;3.40;2.43;;;;;;;23.74;58.59;98779.41;5054290;28;20687;-87
2022/09/12 09:26:34;;;;;;;2.27;2.07;;;;;;;24.26;57.66;98861.19;5067408;28;20644;-86
2022/09/12 09:29:20;;;;;;;4.27;2.53;;;;;;;24.68;58.97;98855.13;5071764;28;20878;-88
2022/09/12 09:31:50;;;;;;;2.93;2.40;;;;;;;24.87;55.13;98807.25;5085912;28;20257;-87
2022/09/12 09:34:21;;;;;;;2.37;2.17;;;;;;;23.79;55.73;98692.28;5069517;28;20297;-87
2022/09/12 09:37:00;;;;;;;2.67;2.23;;;;;;;23.07;57.36;98636.88;5085501;28;20202;-88
2022/09/12 09:39:53;;;;;;;2.20;2.00;;;;;;;24.34;57.00;98851.53;5086497;28;20732;-89
2022/09/12 09:42:21;;;;;;;3.70;2.10;;;;;;;24.72;55.99;98855.94;5067782;28;20185;-89
2022/09/12 09:44:47;;;;;;;1.90;1.80;;;;;;;23.24;55.27;98666.66;5068701;28;20243;-88
2022/09/12 09:47:14;;;;;;;1.90;1.60;;;;;;;23.15;56.16;98655.66;5071370;28;20181;-88
2022/09/12 09:49:40;;;;;;;1.93;1.60;;;;;;;24.62;55.81;98855.25;5070898;28;20195;-89
2022/09/12 09:52:07;;;;;;;2.07;1.80;;;;;;;23.44;56.04;98666.31;5070911;28;20204;-87
2022/09/12 09:54:43;;;;;;;1.93;1.83;;;;;;;24.79;53.73;98832.47;5054274;28;20173;-87
2022/09/12 09:57:33;;;;;;;2.57;1.80;;;;;;;25.00;54.33;98854.44;5069267;28;20600;-87
2022/09/12 10:00:26;;;;;;;3.00;1.90;;;;;;;25.38;52.95;98812.09;5069680;28;20208;-86
2022/09/12 10:03:00;;;;;;;1.70;1.60;;;;;;;25.20;52.75;98853.09;5068817;28;20180;-88
2022/09/12 10:05:27;;;;;;;3.23;2.17;;;;;;;24.38;53.74;98664.28;5070065;28;20270;-88
2022/09/12 10:07:53;;;;;;;3.73;2.27;;;;;;;24.34;52.74;98629.88;5085269;28;20189;-88
2022/09/12 10:10:21;;;;;;;2.83;2.20;;;;;;;25.45;53.28;98857.69;5070436;28;20674;-87
2022/09/12 10:12:47;;;;;;;3.33;1.97;;;;;;;24.02;51.91;98614.22;5084743;28;20180;-87
2022/09/12 10:15:21;;;;;;;2.63;2.17;;;;;;;25.15;51.06;98740.97;5076190;28;22069;-87
2022/09/12 10:17:49;;;;;;;4.23;1.90;;;;;;;24.44;51.63;98633.97;5070387;28;20188;-88
2022/09/12 10:20:30;;;;;;;1.95;1.80;;;;;;;25.63;51.03;98845.13;5071079;28;20204;-88
2022/09/12 10:23:00;;;;;;;2.10;1.90;;;;;;;24.07;51.73;98633.94;5070422;28;20179;-88
2022/09/12 10:25:27;;;;;;;6.27;2.10;;;;;;;25.89;51.33;98808.16;5070595;28;20259;-89
2022/09/12 10:27:58;;;;;;;5.65;2.20;;;;;;;23.41;52.49;98524.25;5069432;28;20185;-88
2022/09/12 10:30:27;;;;;;;2.53;2.10;;;;;;;25.23;50.24;98733.84;5070845;28;20175;-87
2022/09/12 10:32:56;;;;;;;4.47;2.30;;;;;;;25.59;52.71;98847.84;5070459;28;20230;-87
2022/09/12 10:35:24;;;;;;;2.15;1.95;;;;;;;25.90;50.32;98842.72;5059581;28;20251;-86
2022/09/12 10:38:01;;;;;;;2.20;2.00;;;;;;;25.06;51.58;98715.28;5070206;28;20169;-86
2022/09/12 10:40:42;;;;;;;3.63;2.67;;;;;;;25.21;51.69;98714.03;5069177;28;20301;-87
2022/09/12 10:43:29;;;;;;;3.67;2.50;;;;;;;25.90;51.63;98789.09;5070434;28;20189;-86
2022/09/12 10:46:18;;;;;;;3.70;2.72;;;;;;;26.01;51.67;98814.75;5072480;28;20621;-87
2022/09/12 10:48:44;;;;;;;5.13;2.47;;;;;;;26.09;50.58;98841.34;5074449;28;20196;-87
2022/09/12 10:51:24;;;;;;;3.15;2.20;;;;;;;26.05;51.23;98837.09;5073611;28;20178;-86
2022/09/12 10:53:52;;;;;;;3.90;2.28;;;;;;;25.86;51.01;98833.31;5073854;28;20190;-87
2022/09/12 10:56:21;;;;;;;2.75;2.47;;;;;;;25.06;52.71;98825.81;5089072;28;20220;-87
2022/09/12 10:59:01;;;;;;;3.13;2.30;;;;;;;25.35;51.97;98843.25;5089060;28;20244;-87
2022/09/12 11:01:37;;;;;;;3.40;2.77;;;;;;;25.33;52.17;98827.72;5072276;28;20699;-87
2022/09/12 11:04:08;;;;;;;3.38;2.97;;;;;;;25.34;52.72;98831.19;5073862;28;20191;-87
2022/09/12 11:07:05;;;;;;;3.10;2.73;;;;;;;23.61;53.57;98620.31;5073454;28;20186;-87
2022/09/12 11:09:57;;;;;;;2.57;2.37;;;;;;;25.01;51.90;98835.44;5072630;28;20260;-85
2022/09/12 11:12:37;;;;;;;2.67;2.47;;;;;;;25.54;51.63;98836.75;5073115;28;20671;-88
2022/09/12 11:15:02;;;;;;;3.80;2.60;;;;;;;25.87;50.46;98830.69;5062667;28;20193;-87
2022/09/12 11:17:40;;;;;;;3.10;2.80;;;;;;;25.88;50.20;98822.00;5088134;28;20838;-87
2022/09/12 11:20:32;;;;;;;3.42;2.72;;;;;;;25.75;51.57;98831.00;5087066;28;20221;-86
2022/09/12 11:23:16;;;;;;;7.28;5.82;;;;;;;25.79;51.45;98830.03;5098038;28;20187;-87
2022/09/12 11:26:03;;;;;;;3.38;3.00;;;;;;;26.18;50.52;98821.19;5084773;28;20195;-86
2022/09/12 11:28:37;;;;;;;3.15;2.72;;;;;;;26.61;49.57;98817.34;5074435;28;20186;-86
2022/09/12 11:31:12;;;;;;;6.80;3.10;;;;;;;26.03;50.52;98816.41;5073752;28;20667;-88
2022/09/12 11:33:46;;;;;;;4.15;3.10;;;;;;;24.74;50.38;98653.06;5071577;28;20226;-87
2022/09/12 11:36:39;;;;;;;3.75;2.92;;;;;;;25.96;49.26;98816.63;5060317;28;20968;-87
2022/09/12 11:39:15;;;;;;;3.38;2.88;;;;;;;25.57;49.16;98803.81;5052001;28;20178;-84
2022/09/12 11:41:44;;;;;;;3.60;3.00;;;;;;;25.42;51.17;98813.69;5051382;28;20189;-87
2022/09/12 11:44:21;;;;;;;4.47;3.50;;;;;;;26.18;50.20;98817.72;5064645;28;20187;-87